Time;durP1;ratioP1;P1;durP2;ratioP2;P2;SDS_P1;SDS_P2;PMS_P1;PMS_P2;Temp;Humidity;BMP_temperature;BMP_pressure;BME280_temperature;BME280_humidity;BME280_pressure;Samples;Min_cycle;Max_cycle;Signal;HPM_P1;HPM_P2
2022/05/12 00:00:25;;;;;;;4.50;2.78;;;;;;;14.00;75.81;101267.25;4822990;29;20412;-68
2022/05/12 00:02:51;;;;;;;5.82;2.17;;;;;;;13.92;75.45;101264.00;4822852;29;20026;-68
2022/05/12 00:05:17;;;;;;;8.00;2.67;;;;;;;13.84;75.72;101273.06;4822803;29;20046;-68
2022/05/12 00:07:43;;;;;;;6.78;2.08;;;;;;;13.79;76.17;101273.69;4822944;29;20038;-67
2022/05/12 00:10:11;;;;;;;10.52;1.70;;;;;;;13.73;75.71;101282.56;4822914;29;20046;-68
2022/05/12 00:12:38;;;;;;;4.32;1.70;;;;;;;13.69;75.90;101275.13;4822757;29;20027;-68
2022/05/12 00:15:06;;;;;;;4.22;1.73;;;;;;;13.63;76.15;101278.66;4822602;29;20046;-68
2022/05/12 00:17:31;;;;;;;9.10;2.58;;;;;;;13.62;76.42;101283.16;4822768;29;20026;-67
2022/05/12 00:19:56;;;;;;;8.18;1.73;;;;;;;13.58;76.46;101289.97;4822168;29;20079;-67
2022/05/12 00:22:22;;;;;;;5.80;1.35;;;;;;;13.55;76.07;101296.59;4822654;29;20042;-68
2022/05/12 00:24:47;;;;;;;3.92;1.77;;;;;;;13.52;76.07;101288.97;4822567;29;20394;-67
2022/05/12 00:27:13;;;;;;;8.27;1.98;;;;;;;13.49;76.11;101291.19;4822735;29;20542;-68
2022/05/12 00:29:38;;;;;;;8.02;2.45;;;;;;;13.45;75.91;101306.88;4822649;29;20372;-68
2022/05/12 00:32:04;;;;;;;5.22;1.65;;;;;;;13.40;76.30;101301.31;4822430;29;20049;-68
2022/05/12 00:34:29;;;;;;;8.27;2.83;;;;;;;13.34;76.74;101302.94;4822411;29;20037;-68
2022/05/12 00:36:54;;;;;;;7.72;2.65;;;;;;;13.29;77.34;101301.91;4822451;29;20030;-68
2022/05/12 00:39:20;;;;;;;5.72;1.90;;;;;;;13.27;77.27;101312.81;4822444;29;20125;-68
2022/05/12 00:41:45;;;;;;;4.53;2.08;;;;;;;13.26;77.62;101315.69;4822347;29;20103;-68
2022/05/12 00:44:13;;;;;;;11.43;2.08;;;;;;;13.24;77.92;101315.88;4822257;29;20211;-68
2022/05/12 00:46:41;;;;;;;8.77;2.35;;;;;;;13.19;77.79;101326.38;4822232;29;20058;-68
2022/05/12 00:49:34;;;;;;;7.75;2.33;;;;;;;13.18;77.75;101323.88;4822260;29;20431;-68
2022/05/12 00:52:14;;;;;;;4.55;1.90;;;;;;;13.17;77.67;101317.72;4816168;29;20046;-68
2022/05/12 00:55:00;;;;;;;14.82;3.20;;;;;;;13.16;78.11;101324.91;4822436;29;20030;-68
2022/05/12 00:57:33;;;;;;;7.00;1.80;;;;;;;13.09;78.09;101309.84;4822833;29;20887;-69
2022/05/12 00:59:59;;;;;;;4.78;1.80;;;;;;;13.08;78.28;101326.97;4822275;29;20037;-70
2022/05/12 01:02:27;;;;;;;6.75;2.88;;;;;;;13.02;78.45;101327.75;4822051;29;20038;-70
2022/05/12 01:04:56;;;;;;;4.78;1.80;;;;;;;13.03;78.44;101340.13;4821907;29;20054;-70
2022/05/12 01:07:21;;;;;;;4.40;1.98;;;;;;;12.99;78.41;101328.16;4822036;29;20095;-70
2022/05/12 01:09:47;;;;;;;9.13;2.53;;;;;;;12.96;78.38;101333.91;4821982;29;20141;-70
2022/05/12 01:12:12;;;;;;;8.45;2.38;;;;;;;12.90;78.23;101330.19;4821874;29;20031;-70
2022/05/12 01:14:37;;;;;;;6.95;2.00;;;;;;;12.89;78.07;101339.22;4805431;29;20070;-70
2022/05/12 01:17:04;;;;;;;5.88;2.22;;;;;;;12.83;78.25;101338.19;4821946;29;20042;-69
2022/05/12 01:19:35;;;;;;;8.23;2.63;;;;;;;12.77;78.41;101344.34;4821821;29;20094;-69
2022/05/12 01:22:03;;;;;;;7.20;2.30;;;;;;;12.72;78.40;101352.16;4821745;29;20068;-69
2022/05/12 01:24:38;;;;;;;8.07;2.10;;;;;;;12.66;78.31;101350.28;4821605;29;20039;-69
2022/05/12 01:27:20;;;;;;;4.97;2.17;;;;;;;12.62;78.69;101359.72;4821711;29;20038;-69
2022/05/12 01:29:49;;;;;;;7.65;2.30;;;;;;;12.56;78.59;101360.50;4821667;29;20042;-70
2022/05/12 01:32:15;;;;;;;3.63;1.73;;;;;;;12.56;78.60;101371.22;4820862;29;20034;-70
2022/05/12 01:34:40;;;;;;;5.95;1.98;;;;;;;12.52;78.56;101377.97;4821458;29;20413;-70
2022/05/12 01:37:06;;;;;;;9.45;3.15;;;;;;;12.45;78.42;101368.06;4821594;29;20120;-70
2022/05/12 01:39:35;;;;;;;7.40;2.05;;;;;;;12.44;78.61;101374.44;4821356;29;20071;-70
2022/05/12 01:42:05;;;;;;;3.65;1.77;;;;;;;12.35;78.90;101377.44;4820967;29;20034;-70
2022/05/12 01:44:31;;;;;;;5.70;2.63;;;;;;;12.37;78.93;101389.63;4821492;29;20136;-70
2022/05/12 01:46:57;;;;;;;8.73;2.00;;;;;;;12.33;79.01;101393.69;4821416;29;20141;-70
2022/05/12 01:49:22;;;;;;;2.78;1.98;;;;;;;12.30;79.10;101393.25;4821095;29;20045;-70
2022/05/12 01:51:51;;;;;;;5.05;2.38;;;;;;;12.29;79.24;101403.13;4819657;29;20129;-70
2022/05/12 01:54:17;;;;;;;5.93;1.55;;;;;;;12.25;78.99;101396.50;4821027;29;20049;-70
2022/05/12 01:56:42;;;;;;;3.53;1.77;;;;;;;12.20;78.81;101402.44;4821265;29;20042;-69
2022/05/12 01:59:07;;;;;;;3.55;1.92;;;;;;;12.17;78.79;101402.00;4821260;29;20044;-70
2022/05/12 02:01:33;;;;;;;4.35;1.50;;;;;;;12.13;78.76;101395.38;4821063;29;20155;-70
2022/05/12 02:03:58;;;;;;;5.68;2.00;;;;;;;12.06;78.65;101398.00;4820996;29;20038;-70
2022/05/12 02:06:23;;;;;;;4.93;1.50;;;;;;;12.00;78.99;101390.78;4821104;29;20134;-70
2022/05/12 02:08:49;;;;;;;4.15;1.33;;;;;;;11.95;79.11;101396.69;4821099;29;20074;-70
2022/05/12 02:11:14;;;;;;;14.30;2.20;;;;;;;11.90;78.88;101407.13;4821141;29;20576;-70
2022/05/12 02:13:39;;;;;;;5.00;1.50;;;;;;;11.86;79.56;101411.19;4820700;29;20669;-70
2022/05/12 02:16:05;;;;;;;3.90;1.73;;;;;;;11.83;79.52;101420.38;4821120;29;20452;-70
2022/05/12 02:18:30;;;;;;;6.47;2.97;;;;;;;11.81;79.33;101416.25;4820556;29;20039;-70
2022/05/12 02:20:57;;;;;;;2.00;1.40;;;;;;;11.79;79.45;101415.63;4820951;29;20039;-67
2022/05/12 02:23:22;;;;;;;3.30;1.83;;;;;;;11.65;79.37;101403.13;4820837;29;20039;-67
2022/05/12 02:25:48;;;;;;;3.78;1.50;;;;;;;11.71;79.87;101427.28;4804311;29;20043;-67
2022/05/12 02:28:14;;;;;;;2.88;1.40;;;;;;;11.68;79.63;101427.63;4820845;29;20034;-68
2022/05/12 02:30:40;;;;;;;1.92;1.65;;;;;;;11.66;80.15;101428.84;4820714;29;20038;-68
2022/05/12 02:33:05;;;;;;;5.45;2.35;;;;;;;11.65;79.85;101427.19;4820602;29;20039;-68
2022/05/12 02:35:31;;;;;;;5.80;2.05;;;;;;;11.61;80.40;101432.09;4820678;29;20044;-67
2022/05/12 02:37:56;;;;;;;4.07;1.83;;;;;;;11.57;80.37;101431.63;4820611;29;20109;-68
2022/05/12 02:40:25;;;;;;;3.75;2.45;;;;;;;11.51;80.58;101429.72;4820482;29;20043;-67
2022/05/12 02:42:51;;;;;;;2.90;2.35;;;;;;;11.53;80.84;101438.38;4819962;29;20391;-67
2022/05/12 02:45:16;;;;;;;5.68;1.80;;;;;;;11.51;80.57;101442.25;4820453;29;20030;-67
2022/05/12 02:47:42;;;;;;;5.47;2.28;;;;;;;11.47;80.73;101456.97;4820357;29;20034;-68
2022/05/12 02:50:09;;;;;;;11.68;3.05;;;;;;;11.46;80.90;101456.16;4820509;29;20069;-68
2022/05/12 02:52:34;;;;;;;3.15;2.40;;;;;;;11.44;81.25;101454.69;4820726;29;20034;-67
2022/05/12 02:55:00;;;;;;;5.53;2.22;;;;;;;11.39;81.23;101456.06;4820264;29;20435;-69
2022/05/12 02:57:25;;;;;;;6.63;2.70;;;;;;;11.34;81.21;101453.16;4804151;29;20043;-69
2022/05/12 02:59:50;;;;;;;6.45;2.72;;;;;;;11.35;81.03;101460.16;4820489;29;20065;-69
2022/05/12 03:02:16;;;;;;;6.22;2.40;;;;;;;11.32;81.52;101454.38;4820392;29;20061;-69
2022/05/12 03:04:41;;;;;;;5.88;2.30;;;;;;;11.30;81.64;101465.22;4820244;29;20940;-69
2022/05/12 03:07:07;;;;;;;5.43;2.95;;;;;;;11.26;81.46;101460.44;4820305;29;20088;-69
2022/05/12 03:09:32;;;;;;;4.28;2.67;;;;;;;11.27;82.11;101468.25;4820301;29;20042;-69
2022/05/12 03:11:57;;;;;;;7.63;3.10;;;;;;;11.25;82.01;101464.94;4820302;29;20038;-69
2022/05/12 03:14:23;;;;;;;5.75;2.47;;;;;;;11.23;81.93;101466.16;4820047;29;20042;-69
2022/05/12 03:16:52;;;;;;;7.95;2.63;;;;;;;11.21;81.91;101471.66;4820011;29;20146;-69
2022/05/12 03:19:19;;;;;;;6.82;3.22;;;;;;;11.17;82.09;101476.56;4820255;29;20095;-70
2022/05/12 03:21:46;;;;;;;7.15;2.67;;;;;;;11.14;82.36;101471.59;4820236;29;20038;-70
2022/05/12 03:24:12;;;;;;;7.15;2.70;;;;;;;11.14;82.47;101474.25;4804162;29;20038;-69
2022/05/12 03:26:37;;;;;;;5.80;2.42;;;;;;;11.13;82.40;101477.09;4820188;29;20051;-70
2022/05/12 03:29:03;;;;;;;8.80;2.40;;;;;;;11.11;82.44;101474.63;4820222;29;20117;-70
2022/05/12 03:31:28;;;;;;;7.85;2.72;;;;;;;11.08;82.54;101472.34;4820131;29;20121;-70
2022/05/12 03:33:54;;;;;;;7.35;2.85;;;;;;;11.05;82.66;101475.34;4820174;29;20039;-70
2022/05/12 03:36:21;;;;;;;8.05;2.65;;;;;;;11.01;82.86;101473.25;4820105;29;20030;-70
2022/05/12 03:38:48;;;;;;;5.35;2.50;;;;;;;10.97;83.41;101478.94;4820118;29;20490;-69
2022/05/12 03:41:13;;;;;;;7.13;2.67;;;;;;;10.96;83.08;101482.63;4819949;29;20038;-70
2022/05/12 03:46:39;;;;;;;9.48;2.95;;;;;;;10.96;83.42;101500.50;4780945;30;20535;-69
2022/05/12 03:49:04;;;;;;;11.73;3.60;;;;;;;10.95;83.52;101498.81;4811532;29;20044;-69
2022/05/12 03:51:30;;;;;;;9.60;3.20;;;;;;;10.93;83.51;101514.22;4803355;29;20084;-69
2022/05/12 03:53:55;;;;;;;4.18;2.65;;;;;;;10.93;83.80;101517.69;4819911;29;20070;-69
2022/05/12 03:56:21;;;;;;;9.35;2.60;;;;;;;10.91;83.59;101517.03;4822460;29;20054;-69
2022/05/12 03:58:47;;;;;;;9.75;3.80;;;;;;;10.92;83.95;101513.34;4823103;29;20034;-69
2022/05/12 04:01:12;;;;;;;8.95;2.72;;;;;;;10.93;83.99;101516.88;4822932;29;20034;-70
2022/05/12 04:03:37;;;;;;;5.72;2.90;;;;;;;10.96;83.92;101527.19;4823024;29;20184;-70
2022/05/12 04:06:06;;;;;;;17.92;4.28;;;;;;;10.95;83.90;101523.69;4822853;29;20073;-70
2022/05/12 04:08:31;;;;;;;11.85;4.07;;;;;;;10.92;83.99;101524.03;4822957;29;20041;-69
2022/05/12 04:10:57;;;;;;;9.45;4.40;;;;;;;10.91;84.40;101530.38;4822906;29;20034;-69
2022/05/12 04:13:23;;;;;;;15.27;5.43;;;;;;;10.91;84.75;101532.22;4822456;29;20038;-69
2022/05/12 04:15:49;;;;;;;16.27;5.43;;;;;;;10.90;85.07;101536.75;4822307;29;20398;-69
2022/05/12 04:18:14;;;;;;;12.65;4.10;;;;;;;10.91;85.38;101542.91;4822237;29;20046;-69
2022/05/12 04:20:39;;;;;;;14.70;5.13;;;;;;;10.93;85.41;101552.38;4806069;29;20078;-69
2022/05/12 04:23:05;;;;;;;17.25;5.30;;;;;;;10.97;85.67;101548.31;4822364;29;20057;-69
2022/05/12 04:25:31;;;;;;;11.40;4.70;;;;;;;10.97;85.20;101547.50;4822189;29;20593;-70
2022/05/12 04:27:56;;;;;;;10.75;4.60;;;;;;;11.00;85.50;101546.31;4822321;29;20446;-69
2022/05/12 04:30:25;;;;;;;15.95;5.65;;;;;;;11.01;85.72;101545.31;4822159;29;20034;-70
2022/05/12 04:32:51;;;;;;;13.07;5.07;;;;;;;11.07;85.82;101552.59;4822432;29;20038;-69
2022/05/12 04:35:17;;;;;;;16.70;5.75;;;;;;;11.10;85.91;101560.22;4822972;29;20030;-69
2022/05/12 04:37:51;;;;;;;17.88;5.43;;;;;;;11.15;85.84;101571.19;4822254;29;20042;-70
2022/05/12 04:40:28;;;;;;;18.65;5.78;;;;;;;11.21;86.18;101565.09;4822276;29;20091;-70
2022/05/12 04:42:56;;;;;;;16.70;7.38;;;;;;;11.65;86.09;101569.63;4822320;29;20057;-69
2022/05/12 04:45:23;;;;;;;18.63;7.00;;;;;;;12.59;82.98;101566.16;4822018;29;20026;-69
2022/05/12 04:47:50;;;;;;;16.40;5.60;;;;;;;13.51;79.19;101573.22;4821819;29;20030;-69
2022/05/12 04:50:22;;;;;;;16.52;6.78;;;;;;;14.38;75.66;101577.00;4821785;29;20471;-69
2022/05/12 04:52:48;;;;;;;16.13;6.95;;;;;;;15.03;72.44;101586.16;4822162;29;20130;-69
2022/05/12 04:55:15;;;;;;;16.52;6.70;;;;;;;15.46;71.07;101590.25;4821610;29;20121;-69
2022/05/12 04:57:43;;;;;;;19.48;7.50;;;;;;;15.40;70.30;101586.50;4821909;29;20111;-69
2022/05/12 05:00:13;;;;;;;15.93;6.32;;;;;;;14.96;71.85;101580.00;4822157;29;20038;-69
2022/05/12 05:02:39;;;;;;;15.57;7.38;;;;;;;14.55;73.37;101585.56;4822123;29;20045;-69
2022/05/12 05:05:06;;;;;;;18.77;7.28;;;;;;;14.18;74.71;101582.34;4821669;29;20519;-69
2022/05/12 05:07:31;;;;;;;17.63;7.13;;;;;;;13.88;75.83;101590.69;4821915;29;20402;-69
2022/05/12 05:09:57;;;;;;;22.20;8.80;;;;;;;13.64;77.14;101597.41;4821942;29;20030;-69
2022/05/12 05:12:22;;;;;;;18.58;7.05;;;;;;;13.51;78.09;101600.84;4821995;29;20555;-70
2022/05/12 05:14:47;;;;;;;20.30;8.30;;;;;;;13.37;78.91;101604.47;4821519;29;20034;-71
2022/05/12 05:17:13;;;;;;;16.33;8.52;;;;;;;13.28;79.65;101603.81;4821480;29;20034;-71
2022/05/12 05:19:39;;;;;;;21.70;11.13;;;;;;;13.12;80.33;101602.19;4821293;29;20117;-70
2022/05/12 05:22:04;;;;;;;28.05;12.02;;;;;;;13.21;80.92;101626.19;4821711;29;20454;-70
2022/05/12 05:24:30;;;;;;;21.70;8.93;;;;;;;13.15;81.33;101622.41;4821690;29;20057;-70
2022/05/12 05:26:55;;;;;;;22.80;8.75;;;;;;;13.07;81.82;101614.53;4821768;29;20498;-70
2022/05/12 05:29:21;;;;;;;19.25;8.75;;;;;;;13.11;82.25;101621.16;4821794;29;20105;-70
2022/05/12 05:31:46;;;;;;;22.30;8.80;;;;;;;13.15;82.49;101625.09;4821230;29;20440;-69
2022/05/12 05:34:12;;;;;;;28.98;10.20;;;;;;;13.19;82.32;101628.22;4821435;29;20372;-70
2022/05/12 05:36:40;;;;;;;25.17;9.95;;;;;;;13.25;82.50;101630.94;4821597;29;20038;-69
2022/05/12 05:39:07;;;;;;;25.23;10.70;;;;;;;13.25;83.07;101627.44;4821503;29;20049;-69
2022/05/12 05:41:32;;;;;;;25.90;11.32;;;;;;;13.28;82.68;101633.28;4821478;29;20038;-69
2022/05/12 05:43:58;;;;;;;20.20;9.38;;;;;;;13.33;83.02;101635.34;4821405;29;20504;-69
2022/05/12 05:46:24;;;;;;;24.10;10.82;;;;;;;13.33;83.73;101652.25;4821196;29;20213;-69
2022/05/12 05:48:51;;;;;;;23.13;10.80;;;;;;;13.36;83.23;101656.38;4820851;29;20037;-69
2022/05/12 05:54:00;;;;;;;23.88;11.35;;;;;;;13.45;83.48;101668.63;4821374;29;20071;-69
2022/05/12 05:56:25;;;;;;;22.83;9.95;;;;;;;13.51;83.21;101672.38;4821268;29;20047;-69
2022/05/12 05:58:51;;;;;;;25.42;12.57;;;;;;;13.53;83.30;101676.50;4821333;29;20038;-69
2022/05/12 06:01:17;;;;;;;21.65;10.95;;;;;;;13.55;83.39;101676.34;4821287;29;20038;-69
2022/05/12 06:03:43;;;;;;;26.25;10.45;;;;;;;13.56;83.53;101686.00;4821122;29;20102;-70
2022/05/12 06:06:08;;;;;;;27.63;10.70;;;;;;;13.59;83.19;101688.31;4820741;29;20062;-70
2022/05/12 06:08:34;;;;;;;21.40;9.30;;;;;;;13.64;83.62;101693.06;4821293;29;20035;-70
2022/05/12 06:11:04;;;;;;;21.55;10.27;;;;;;;13.68;83.30;101695.19;4821057;29;20380;-74
2022/05/12 06:13:30;;;;;;;20.77;11.32;;;;;;;13.77;83.23;101698.53;4820939;29;20099;-69
2022/05/12 06:15:55;;;;;;;23.98;10.38;;;;;;;13.77;82.67;101702.03;4820959;29;20042;-69
2022/05/12 06:18:21;;;;;;;23.55;11.25;;;;;;;13.79;82.62;101697.31;4820438;29;20094;-69
2022/05/12 06:20:49;;;;;;;24.38;11.05;;;;;;;13.81;82.61;101705.16;4820961;29;20117;-69
2022/05/12 06:23:15;;;;;;;22.40;9.52;;;;;;;13.83;82.08;101708.44;4820862;29;20109;-69
2022/05/12 06:25:41;;;;;;;18.52;9.07;;;;;;;13.88;81.91;101706.00;4820803;29;20046;-69
2022/05/12 06:28:07;;;;;;;23.48;11.68;;;;;;;13.98;81.73;101713.69;4817533;29;20713;-71
2022/05/12 06:30:33;;;;;;;18.70;7.85;;;;;;;14.01;80.75;101714.13;4816278;29;20038;-72
2022/05/12 06:32:58;;;;;;;19.98;9.85;;;;;;;13.94;80.93;101699.06;4819407;29;20041;-71
2022/05/12 06:35:25;;;;;;;21.73;9.15;;;;;;;14.06;80.87;101715.41;4820564;29;20038;-69
2022/05/12 06:37:51;;;;;;;18.58;8.52;;;;;;;14.11;79.82;101723.69;4820472;29;20061;-70
2022/05/12 06:40:17;;;;;;;16.88;8.60;;;;;;;14.14;78.99;101723.28;4820228;29;20121;-70
2022/05/12 06:42:43;;;;;;;19.77;8.32;;;;;;;14.18;78.25;101722.69;4820569;29;20486;-70
2022/05/12 06:45:11;;;;;;;20.38;8.27;;;;;;;14.14;78.40;101725.97;4820575;29;20030;-70
2022/05/12 06:47:37;;;;;;;19.20;7.47;;;;;;;14.14;78.11;101723.28;4820484;29;20030;-70
2022/05/12 06:50:03;;;;;;;15.70;7.55;;;;;;;14.11;78.32;101729.88;4820082;29;20034;-70
2022/05/12 06:52:29;;;;;;;15.07;7.10;;;;;;;14.18;78.31;101737.97;4820221;29;20451;-70
2022/05/12 06:54:55;;;;;;;17.23;7.32;;;;;;;14.24;77.20;101742.53;4820030;29;20125;-70
2022/05/12 06:57:23;;;;;;;18.63;6.65;;;;;;;14.36;77.23;101745.50;4820640;29;20113;-70
2022/05/12 06:59:50;;;;;;;17.40;6.25;;;;;;;14.44;76.19;101745.31;4820469;29;20479;-70
2022/05/12 07:02:15;;;;;;;19.10;7.13;;;;;;;14.41;76.62;101751.91;4820820;29;20042;-70
2022/05/12 07:04:41;;;;;;;16.85;6.57;;;;;;;14.45;75.86;101752.31;4820436;29;20487;-70
2022/05/12 07:07:07;;;;;;;15.73;7.18;;;;;;;14.54;74.92;101756.53;4820475;29;20149;-69
2022/05/12 07:09:32;;;;;;;15.10;6.20;;;;;;;14.62;74.79;101748.31;4820372;29;20547;-70
2022/05/12 07:11:58;;;;;;;13.77;7.13;;;;;;;14.82;75.11;101752.91;4820430;29;20569;-70
2022/05/12 07:14:24;;;;;;;16.23;7.95;;;;;;;14.89;74.13;101757.25;4820285;29;20062;-70
2022/05/12 07:16:50;;;;;;;28.98;8.00;;;;;;;15.00;74.85;101761.19;4820433;29;20095;-70
2022/05/12 07:19:16;;;;;;;16.55;7.50;;;;;;;15.13;73.61;101760.41;4820364;29;20065;-70
2022/05/12 07:27:14;;;;;;;20.70;7.88;;;;;;;15.36;71.53;101759.19;4820526;29;20049;-70
2022/05/12 07:29:39;;;;;;;18.27;8.38;;;;;;;15.42;70.83;101766.44;4820572;29;20121;-70
2022/05/12 07:32:05;;;;;;;16.05;7.80;;;;;;;15.40;70.39;101782.75;4823542;29;20102;-70
2022/05/12 07:34:31;;;;;;;16.63;7.95;;;;;;;15.34;69.98;101783.59;4823378;29;20463;-70
2022/05/12 07:36:57;;;;;;;23.10;10.48;;;;;;;15.33;69.61;101780.06;4823496;29;20042;-70
2022/05/12 07:39:28;;;;;;;17.25;8.98;;;;;;;15.22;70.46;101775.31;4823224;29;20034;-70
2022/05/12 07:41:55;;;;;;;19.05;11.13;;;;;;;15.15;71.03;101777.16;4823467;29;20368;-70
2022/05/12 07:44:22;;;;;;;22.15;8.70;;;;;;;15.27;69.10;101783.59;4823264;29;20038;-71
2022/05/12 07:46:49;;;;;;;16.95;7.65;;;;;;;15.34;68.34;101781.72;4823305;29;20034;-71
2022/05/12 07:49:14;;;;;;;14.63;9.45;;;;;;;15.26;67.49;101781.91;4823216;29;20034;-71
2022/05/12 07:51:40;;;;;;;15.55;8.50;;;;;;;15.14;68.53;101783.53;4823126;29;20538;-71
2022/05/12 07:54:05;;;;;;;22.55;11.13;;;;;;;15.22;70.19;101783.38;4823121;29;20053;-71
2022/05/12 07:56:31;;;;;;;16.73;8.52;;;;;;;15.47;68.49;101788.97;4823023;29;20072;-71
2022/05/12 07:58:58;;;;;;;14.55;7.53;;;;;;;15.86;65.16;101791.91;4822909;29;20070;-71
2022/05/12 08:01:25;;;;;;;12.77;7.03;;;;;;;16.21;65.52;101795.13;4823032;29;20034;-71
2022/05/12 08:03:51;;;;;;;15.00;7.50;;;;;;;16.99;61.69;101800.44;4806818;29;20047;-71
2022/05/12 08:06:17;;;;;;;16.67;8.65;;;;;;;18.58;58.96;101787.44;4822769;29;20069;-71
2022/05/12 08:08:44;;;;;;;14.00;8.43;;;;;;;19.48;55.01;101796.56;4822974;29;20050;-71
2022/05/12 08:11:10;;;;;;;13.20;6.57;;;;;;;18.97;52.92;101797.97;4822981;29;20436;-72
2022/05/12 08:13:37;;;;;;;14.55;5.68;;;;;;;19.16;52.00;101796.84;4822774;29;20090;-71
2022/05/12 08:16:04;;;;;;;10.57;5.55;;;;;;;19.43;51.33;101805.38;4822810;29;20483;-71
2022/05/12 08:18:32;;;;;;;13.35;6.53;;;;;;;18.86;52.64;101802.25;4822739;29;20064;-71
2022/05/12 08:20:58;;;;;;;12.43;6.28;;;;;;;18.55;53.68;101808.69;4822562;29;20490;-71
2022/05/12 08:23:24;;;;;;;12.00;5.72;;;;;;;19.00;52.60;101808.34;4822630;29;20376;-71
2022/05/12 08:25:51;;;;;;;11.10;5.15;;;;;;;20.99;47.52;101796.63;4822602;29;20038;-71
2022/05/12 08:28:18;;;;;;;10.38;4.53;;;;;;;22.85;43.40;101803.75;4822577;29;20034;-71
2022/05/12 08:30:45;;;;;;;8.85;5.15;;;;;;;24.26;39.87;101798.88;4822538;29;20038;-71
2022/05/12 08:33:11;;;;;;;13.02;4.78;;;;;;;25.12;37.52;101803.78;4822608;29;20368;-71
2022/05/12 08:35:37;;;;;;;8.13;4.70;;;;;;;24.80;35.97;101806.75;4822271;29;20077;-71
2022/05/12 08:38:03;;;;;;;8.27;4.15;;;;;;;22.81;38.34;101805.31;4822455;29;20058;-71
2022/05/12 08:40:35;;;;;;;10.80;4.35;;;;;;;22.64;40.57;101799.97;4821869;29;20034;-71
2022/05/12 08:43:11;;;;;;;8.52;4.63;;;;;;;24.09;38.51;101796.34;4822559;29;20444;-72
2022/05/12 08:45:36;;;;;;;12.95;5.40;;;;;;;25.40;35.48;101798.13;4822362;29;20486;-72
2022/05/12 08:48:02;;;;;;;9.85;4.38;;;;;;;26.09;33.53;101789.28;4822174;29;20034;-71
2022/05/12 08:50:31;;;;;;;8.23;4.88;;;;;;;26.23;32.77;101797.72;4822201;29;20042;-72
2022/05/12 08:53:01;;;;;;;6.80;3.90;;;;;;;24.71;34.56;101798.28;4822169;29;20133;-72
2022/05/12 08:55:33;;;;;;;6.72;3.17;;;;;;;23.23;36.30;101805.50;4822485;29;20034;-72
2022/05/12 08:58:20;;;;;;;5.35;3.58;;;;;;;21.86;39.37;101800.81;4822192;29;20487;-72
2022/05/12 09:01:09;;;;;;;7.78;3.55;;;;;;;20.64;42.10;101801.38;4822136;29;20034;-72
2022/05/12 09:03:50;;;;;;;9.98;3.83;;;;;;;20.19;43.31;101802.84;4822149;29;20030;-72
2022/05/12 09:06:21;;;;;;;10.50;4.13;;;;;;;19.92;42.83;101806.06;4821579;29;20062;-72
2022/05/12 09:08:57;;;;;;;6.18;3.85;;;;;;;19.65;44.61;101807.56;4821976;29;20467;-72
2022/05/12 09:11:45;;;;;;;13.45;3.90;;;;;;;19.47;45.93;101820.09;4821895;29;20034;-72
2022/05/12 09:14:34;;;;;;;8.57;4.05;;;;;;;19.26;46.38;101816.06;4821831;29;20026;-72
2022/05/12 09:17:00;;;;;;;8.40;3.60;;;;;;;19.33;47.75;101821.34;4785664;29;20046;-72
2022/05/12 09:19:27;;;;;;;10.15;4.40;;;;;;;19.50;46.28;101816.13;4821772;29;20125;-72
2022/05/12 09:21:53;;;;;;;10.73;4.15;;;;;;;19.45;44.90;101814.09;4821863;29;20042;-71
2022/05/12 09:24:19;;;;;;;9.02;3.70;;;;;;;19.43;44.05;101801.84;4805238;29;20034;-70
2022/05/12 09:27:06;;;;;;;13.43;4.30;;;;;;;19.47;44.06;101811.16;4821811;29;20050;-71
2022/05/12 09:29:46;;;;;;;7.63;3.45;;;;;;;19.42;45.73;101809.16;4821630;29;20475;-71
2022/05/12 09:32:11;;;;;;;4.95;2.55;;;;;;;19.52;42.92;101813.16;4821677;29;20069;-71
2022/05/12 09:34:43;;;;;;;4.60;2.50;;;;;;;19.44;43.53;101809.75;4821123;29;20038;-71
2022/05/12 09:37:15;;;;;;;5.00;2.50;;;;;;;19.48;43.36;101802.81;4821530;29;20354;-70
2022/05/12 09:39:42;;;;;;;9.05;3.05;;;;;;;19.63;44.87;101815.06;4821566;29;20080;-70
2022/05/12 09:42:28;;;;;;;10.48;3.75;;;;;;;19.78;43.11;101812.78;4821393;29;20440;-70
2022/05/12 09:44:59;;;;;;;6.05;3.30;;;;;;;19.96;42.17;101811.00;4821586;29;20026;-70
2022/05/12 09:47:26;;;;;;;5.68;3.05;;;;;;;19.74;42.75;101800.75;4821485;29;20038;-71
2022/05/12 09:50:16;;;;;;;7.15;2.70;;;;;;;19.73;43.25;101803.69;4821370;29;20111;-70
2022/05/12 09:52:57;;;;;;;5.60;2.55;;;;;;;19.66;41.68;101799.22;4819951;29;20099;-71
2022/05/12 09:55:29;;;;;;;4.80;2.30;;;;;;;19.69;41.33;101795.22;4820746;29;20068;-70
2022/05/12 09:57:59;;;;;;;2.50;1.95;;;;;;;19.68;40.39;101797.09;4821093;29;20125;-70
2022/05/12 10:00:30;;;;;;;6.88;2.88;;;;;;;19.57;41.08;101802.47;4821242;29;20491;-70
2022/05/12 10:08:39;;;;;;;7.05;2.85;;;;;;;19.72;40.61;101793.91;4821324;29;20076;-71
2022/05/12 10:11:08;;;;;;;7.32;3.10;;;;;;;19.68;39.31;101796.28;4821003;29;20958;-71
2022/05/12 10:13:50;;;;;;;4.10;2.42;;;;;;;19.73;42.24;101795.56;4820752;29;20073;-71
2022/05/12 10:16:22;;;;;;;6.60;2.75;;;;;;;19.87;41.86;101789.69;4821101;29;20034;-70
2022/05/12 10:18:52;;;;;;;5.32;3.50;;;;;;;20.10;42.55;101791.56;4821060;29;20069;-68
2022/05/12 10:21:32;;;;;;;6.75;2.72;;;;;;;20.27;42.21;101782.69;4820912;29;20027;-68
2022/05/12 10:24:11;;;;;;;5.95;2.72;;;;;;;20.23;41.15;101792.38;4820742;29;20054;-69
2022/05/12 10:26:54;;;;;;;5.40;2.28;;;;;;;20.21;41.49;101797.22;4820815;29;20098;-69
2022/05/12 10:29:42;;;;;;;5.85;2.80;;;;;;;20.27;40.72;101801.66;4820555;29;20431;-68
2022/05/12 10:32:39;;;;;;;4.25;2.13;;;;;;;20.20;39.87;101798.25;4820847;29;20041;-68
2022/05/12 10:35:16;;;;;;;3.58;2.80;;;;;;;20.20;40.34;101798.25;4820361;29;20768;-68
2022/05/12 10:37:50;;;;;;;3.95;2.92;;;;;;;20.30;39.74;101795.75;4820740;29;20037;-68
2022/05/12 10:40:28;;;;;;;6.38;2.35;;;;;;;20.36;39.68;101786.69;4820328;29;20041;-68
2022/05/12 10:43:07;;;;;;;5.28;2.13;;;;;;;20.51;38.89;101789.72;4820061;29;20030;-69
2022/05/12 10:46:01;;;;;;;5.10;2.88;;;;;;;20.72;39.45;101800.97;4820685;29;20387;-69
2022/05/12 10:48:44;;;;;;;6.00;2.65;;;;;;;20.79;39.13;101801.66;4819779;29;20519;-68
2022/05/12 10:51:26;;;;;;;3.92;3.28;;;;;;;20.94;39.10;101796.53;4820462;29;20042;-68
2022/05/12 10:54:22;;;;;;;5.50;2.22;;;;;;;20.79;37.96;101798.97;4819643;29;20046;-68
2022/05/12 10:57:06;;;;;;;3.55;2.00;;;;;;;20.11;37.71;101792.38;4820155;29;20030;-68
2022/05/12 11:00:08;;;;;;;3.75;2.00;;;;;;;19.74;39.42;101798.03;4820374;29;20061;-68
2022/05/12 11:02:41;;;;;;;;;;;;;;;19.67;38.80;101795.44;4820803;29;20446;-68
2022/05/12 11:05:22;;;;;;;3.78;1.65;;;;;;;19.27;38.69;101803.34;4822590;29;19924;-68
2022/05/12 11:08:19;;;;;;;4.50;2.70;;;;;;;19.08;39.32;101799.91;4823869;29;20034;-68
2022/05/12 11:11:03;;;;;;;7.18;2.53;;;;;;;19.10;39.28;101799.66;4817562;29;20113;-68
2022/05/12 11:13:41;;;;;;;5.18;2.40;;;;;;;19.33;40.46;101793.47;4823825;29;20037;-68
2022/05/12 11:16:30;;;;;;;5.97;3.40;;;;;;;19.61;41.27;101784.72;4823799;29;20022;-69
2022/05/12 11:18:55;;;;;;;4.10;2.05;;;;;;;19.87;39.84;101778.84;4823739;29;20042;-70
2022/05/12 11:21:29;;;;;;;7.50;2.70;;;;;;;20.18;38.66;101779.53;4823919;29;20031;-70
2022/05/12 11:24:21;;;;;;;3.22;2.20;;;;;;;20.48;38.35;101776.63;4823611;29;20772;-68
2022/05/12 11:27:21;;;;;;;2.17;1.60;;;;;;;20.46;35.26;101762.53;4823254;29;20030;-68
2022/05/12 11:30:12;;;;;;;8.50;2.58;;;;;;;20.11;35.51;101782.38;4822598;29;20110;-68
2022/05/12 11:33:16;;;;;;;7.90;3.35;;;;;;;19.78;36.66;101783.00;4823085;29;20034;-68
2022/05/12 11:35:44;;;;;;;7.97;1.90;;;;;;;19.77;38.53;101778.63;4823153;29;20022;-68
2022/05/12 11:38:42;;;;;;;7.65;2.30;;;;;;;20.06;38.80;101779.53;4823181;29;20420;-68
2022/05/12 11:41:20;;;;;;;6.03;2.67;;;;;;;20.26;37.51;101772.94;4823246;29;20475;-69
2022/05/12 11:47:01;;;;;;;4.88;3.35;;;;;;;20.54;36.63;101762.16;4823273;29;20111;-70
2022/05/12 11:49:26;;;;;;;8.30;4.22;;;;;;;20.65;36.58;101765.09;4823289;29;20183;-69
2022/05/12 11:52:19;;;;;;;4.67;2.40;;;;;;;20.98;37.30;101767.03;4823272;29;20122;-69